Time;durP1;ratioP1;P1;durP2;ratioP2;P2;SDS_P1;SDS_P2;PMS_P1;PMS_P2;Temp;Humidity;BMP_temperature;BMP_pressure;BME280_temperature;BME280_humidity;BME280_pressure;Samples;Min_cycle;Max_cycle;Signal;HPM_P1;HPM_P2
2023/09/03 00:01:11;;;;;;;;;1.50;1.50;;;;;22.25;72.34;101534.72;6180830;22;45467;-81
2023/09/03 00:03:37;;;;;;;;;3.00;3.00;;;;;22.22;72.30;101535.84;6180007;22;45783;-82
2023/09/03 00:06:02;;;;;;;;;3.00;3.00;;;;;22.18;72.62;101534.41;6178963;22;45386;-82
2023/09/03 00:08:27;;;;;;;;;4.50;4.50;;;;;22.19;72.19;101535.28;6180679;23;45735;-80
2023/09/03 00:10:53;;;;;;;;;5.25;4.00;;;;;22.14;72.05;101522.16;6179722;23;52069;-80
2023/09/03 00:13:19;;;;;;;;;2.75;2.75;;;;;22.20;72.34;101542.41;6181428;23;45447;-82
2023/09/03 00:15:45;;;;;;;;;1.25;1.25;;;;;22.11;72.62;101533.25;6203998;22;45608;-82
2023/09/03 00:18:11;;;;;;;;;4.00;4.00;;;;;22.15;72.50;101529.28;6180480;22;45611;-82
2023/09/03 00:20:37;;;;;;;;;6.75;6.75;;;;;22.18;72.44;101539.00;6178446;22;45367;-82
2023/09/03 00:23:03;;;;;;;;;5.25;4.00;;;;;22.06;72.86;101524.69;6177043;23;45478;-79
2023/09/03 00:25:33;;;;;;;;;6.75;5.25;;;;;21.89;72.53;101509.06;6176652;22;45264;-82
2023/09/03 00:27:58;;;;;;;;;4.33;4.33;;;;;22.03;72.88;101539.34;6179976;22;45347;-83
2023/09/03 00:30:24;;;;;;;;;4.00;4.00;;;;;21.99;72.93;101540.59;6177606;23;45536;-79
2023/09/03 00:32:49;;;;;;;;;3.75;3.75;;;;;21.89;73.25;101536.16;6176286;22;71227;-79
2023/09/03 00:35:14;;;;;;;;;3.50;2.75;;;;;21.99;73.28;101558.69;6176430;23;65455;-82
2023/09/03 00:37:39;;;;;;;;;3.75;3.75;;;;;21.99;73.55;101564.09;6177457;23;45355;-81
2023/09/03 00:40:05;;;;;;;;;3.50;3.50;;;;;21.92;73.63;101554.81;6176503;23;45343;-80
2023/09/03 00:42:40;;;;;;;;;4.00;2.75;;;;;21.96;73.44;101564.38;6178977;23;45402;-80
2023/09/03 00:45:17;;;;;;;;;3.00;3.00;;;;;21.87;73.49;101554.34;6181687;22;45430;-79
2023/09/03 00:47:43;;;;;;;;;3.00;3.00;;;;;21.84;73.74;101551.94;6180507;22;45348;-82
2023/09/03 00:50:09;;;;;;;;;3.75;3.00;;;;;21.70;74.07;101540.47;6179905;22;45234;-82
2023/09/03 00:52:36;;;;;;;;;3.00;3.00;;;;;21.76;73.88;101561.59;6179145;22;45295;-81
2023/09/03 00:55:01;;;;;;;;;2.00;2.00;;;;;21.76;73.91;101561.59;6177504;22;45293;-81
2023/09/03 00:57:28;;;;;;;;;4.00;3.50;;;;;21.75;73.73;101562.59;6178826;22;45474;-82
2023/09/03 00:59:55;;;;;;;;;1.75;1.75;;;;;21.71;74.27;101562.97;6177479;22;45750;-84
2023/09/03 01:02:21;;;;;;;;;3.00;3.00;;;;;21.82;74.19;101578.28;6177730;23;46069;-80
2023/09/03 01:04:46;;;;;;;;;4.50;4.50;;;;;21.62;74.15;101540.31;6176480;23;45345;-81
2023/09/03 01:07:14;;;;;;;;;2.50;2.50;;;;;21.58;74.34;101544.25;6177800;23;59522;-80
2023/09/03 01:09:40;;;;;;;;;2.25;2.25;;;;;21.77;74.66;101571.44;6178190;22;45269;-82
2023/09/03 01:12:20;;;;;;;;;4.75;3.00;;;;;21.69;74.40;101559.56;6177990;22;45400;-81
2023/09/03 01:15:07;;;;;;;;;3.00;3.00;;;;;21.71;74.84;101557.56;6176631;23;45439;-79
2023/09/03 01:17:56;;;;;;;;;2.25;2.25;;;;;21.70;74.85;101564.81;6177216;22;45626;-80
2023/09/03 01:20:52;;;;;;;;;4.00;4.00;;;;;21.66;75.00;101566.09;6177614;22;45556;-81
2023/09/03 01:23:27;;;;;;;;;3.25;3.25;;;;;21.66;75.15;101560.69;6176775;23;45391;-79
2023/09/03 01:26:10;;;;;;;;;3.50;3.50;;;;;21.66;75.11;101549.84;6177399;22;45824;-81
2023/09/03 01:28:38;;;;;;;;;3.75;3.50;;;;;21.66;74.63;101541.75;6177994;23;45311;-82
2023/09/03 01:31:07;;;;;;;;;4.25;4.25;;;;;21.53;74.18;101510.47;6179083;22;45918;-81
2023/09/03 01:33:36;;;;;;;;;2.00;2.00;;;;;21.53;74.51;101516.72;6176388;22;46103;-81
2023/09/03 01:36:06;;;;;;;;;4.00;4.00;;;;;21.68;74.67;101537.03;6177111;22;45475;-82
2023/09/03 01:38:31;;;;;;;;;3.00;3.00;;;;;21.70;74.65;101534.19;6177149;22;45522;-81
2023/09/03 01:40:59;;;;;;;;;4.00;4.00;;;;;21.65;74.55;101529.19;6176361;23;45609;-78
2023/09/03 01:43:27;;;;;;;;;3.00;3.00;;;;;21.57;74.60;101517.31;6177561;22;46510;-79
2023/09/03 01:46:06;;;;;;;;;3.25;3.25;;;;;21.66;74.61;101527.34;6177476;23;45445;-80
2023/09/03 01:48:31;;;;;;;;;5.00;3.00;;;;;21.64;74.59;101524.78;6176764;22;45661;-80
2023/09/03 01:51:25;;;;;;;;;4.75;2.75;;;;;21.59;74.31;101521.59;6176778;23;45702;-78
2023/09/03 01:54:06;;;;;;;;;4.00;4.00;;;;;21.59;74.99;101523.44;6175424;23;48249;-81
2023/09/03 01:56:36;;;;;;;;;3.50;3.50;;;;;21.37;75.38;101498.28;6177384;23;45689;-82
2023/09/03 01:59:11;;;;;;;;;5.00;5.00;;;;;21.40;75.62;101508.81;6178459;22;45336;-83
2023/09/03 02:01:38;;;;;;;;;3.00;3.00;;;;;21.29;75.60;101484.56;6178153;22;45331;-82
2023/09/03 02:04:04;;;;;;;;;9.25;4.50;;;;;21.42;75.92;101514.09;6179595;22;45331;-80
2023/09/03 02:06:29;;;;;;;;;2.50;2.50;;;;;21.36;76.00;101518.22;6176822;23;45335;-79
2023/09/03 02:08:54;;;;;;;;;5.00;4.00;;;;;21.25;76.05;101504.75;6179261;23;52599;-83
2023/09/03 02:11:20;;;;;;;;;4.00;4.00;;;;;21.35;76.11;101532.72;6178795;23;45268;-83
2023/09/03 02:13:45;;;;;;;;;5.00;5.00;;;;;21.32;76.38;101530.28;6176795;23;70860;-81
2023/09/03 02:16:10;;;;;;;;;5.00;5.00;;;;;21.20;76.43;101524.03;6176443;23;45311;-81
2023/09/03 02:18:35;;;;;;;;;5.00;5.00;;;;;21.28;76.58;101544.22;6176728;23;66591;-82
2023/09/03 02:21:01;;;;;;;;;4.00;4.00;;;;;21.12;76.73;101523.84;6177238;23;58986;-80
2023/09/03 02:23:26;;;;;;;;;3.75;3.75;;;;;21.19;76.67;101543.97;6178453;22;45683;-79
2023/09/03 02:26:00;;;;;;;;;3.00;3.00;;;;;21.15;77.14;101542.53;6178711;22;45619;-81
2023/09/03 02:28:25;;;;;;;;;5.75;4.25;;;;;21.20;76.88;101551.09;6178781;22;45324;-81
2023/09/03 02:30:50;;;;;;;;;4.50;4.50;;;;;21.10;76.76;101538.50;6180160;22;45564;-80
2023/09/03 02:33:16;;;;;;;;;4.00;4.00;;;;;21.13;76.97;101544.50;6178691;23;68024;-81
2023/09/03 02:35:41;;;;;;;;;5.00;5.00;;;;;21.04;76.88;101529.06;6177619;23;66261;-81
2023/09/03 02:38:06;;;;;;;;;8.33;4.33;;;;;21.12;77.09;101550.06;6178696;23;45726;-80
2023/09/03 02:40:31;;;;;;;;;4.33;4.33;;;;;21.11;77.04;101548.34;6177384;23;55054;-80
2023/09/03 02:42:57;;;;;;;;;4.00;4.00;;;;;21.06;76.97;101540.59;6178831;23;62755;-79
2023/09/03 02:45:22;;;;;;;;;4.67;2.67;;;;;21.00;76.46;101533.00;6177555;23;45738;-81
2023/09/03 02:47:47;;;;;;;;;4.50;4.50;;;;;21.10;77.12;101550.19;6178940;23;59757;-81
2023/09/03 02:50:13;;;;;;;;;4.25;4.25;;;;;21.02;77.31;101544.56;6180164;22;45333;-81
2023/09/03 02:52:38;;;;;;;;;3.00;3.00;;;;;21.02;77.17;101554.50;6181279;23;67190;-82
2023/09/03 02:55:03;;;;;;;;;5.00;3.67;;;;;20.98;77.35;101559.34;6177624;23;54700;-82
2023/09/03 02:57:29;;;;;;;;;4.00;4.00;;;;;20.94;77.41;101557.84;6178582;23;45569;-82
2023/09/03 02:59:54;;;;;;;;;4.00;4.00;;;;;20.98;77.44;101564.75;6177610;23;50726;-82
2023/09/03 03:02:20;;;;;;;;;4.00;4.00;;;;;20.92;77.46;101559.84;6179378;23;46216;-82
2023/09/03 03:04:45;;;;;;;;;3.67;3.67;;;;;20.86;77.54;101560.38;6178233;22;45414;-81
2023/09/03 03:07:11;;;;;;;;;5.00;4.00;;;;;20.76;77.72;101543.19;6177781;22;45371;-81
2023/09/03 03:09:36;;;;;;;;;4.00;4.00;;;;;20.79;77.63;101564.56;6178655;22;45415;-80
2023/09/03 03:12:01;;;;;;;;;2.00;2.00;;;;;20.82;77.59;101565.16;6177797;22;45435;-81
2023/09/03 03:14:27;;;;;;;;;2.00;2.00;;;;;20.89;77.65;101573.63;6177590;22;45601;-79
2023/09/03 03:16:52;;;;;;;;;3.33;3.33;;;;;20.88;77.66;101574.63;6178671;23;45314;-81
2023/09/03 03:19:17;;;;;;;;;4.75;3.75;;;;;20.79;77.62;101565.41;6177354;23;45491;-82
2023/09/03 03:21:42;;;;;;;;;4.00;3.00;;;;;20.78;77.35;101569.09;6177421;23;53769;-81
2023/09/03 03:24:08;;;;;;;;;3.00;3.00;;;;;20.83;77.87;101582.22;6177641;23;45688;-80
2023/09/03 03:26:34;;;;;;;;;3.33;3.33;;;;;20.68;78.33;101551.94;6178908;23;45296;-80
2023/09/03 03:28:59;;;;;;;;;3.00;3.00;;;;;20.76;78.20;101575.63;6179392;22;45467;-84
2023/09/03 03:31:25;;;;;;;;;4.00;4.00;;;;;20.73;78.17;101570.50;6176630;23;48068;-79
2023/09/03 03:33:51;;;;;;;;;3.33;3.33;;;;;20.71;77.85;101567.06;6177948;22;45352;-81
2023/09/03 03:36:18;;;;;;;;;3.67;3.67;;;;;20.76;78.20;101581.03;6177780;23;45721;-82
2023/09/03 03:38:44;;;;;;;;;4.33;2.67;;;;;20.70;78.41;101581.53;6176629;23;45691;-81
2023/09/03 03:41:14;;;;;;;;;5.00;4.33;;;;;20.69;78.36;101586.09;6177577;22;46149;-80
2023/09/03 03:43:41;;;;;;;;;5.67;5.67;;;;;20.61;78.68;101577.78;6177941;22;45294;-82
2023/09/03 03:46:08;;;;;;;;;3.00;3.00;;;;;20.54;78.87;101572.00;6177387;22;45372;-79
2023/09/03 03:48:34;;;;;;;;;3.50;3.50;;;;;20.36;79.02;101551.00;6178704;22;45711;-82
2023/09/03 03:50:59;;;;;;;;;3.00;3.00;;;;;20.51;78.92;101584.91;6177198;22;45882;-79
2023/09/03 03:53:25;;;;;;;;;3.00;3.00;;;;;20.61;79.12;101604.81;6177229;22;45455;-79
2023/09/03 03:56:16;;;;;;;;;4.67;4.67;;;;;20.55;79.35;101600.75;6175974;23;45547;-79
2023/09/03 03:58:43;;;;;;;;;4.00;4.00;;;;;20.53;79.17;101602.72;6175073;23;45611;-80
2023/09/03 04:01:16;;;;;;;;;4.00;4.00;;;;;20.52;79.49;101595.59;6177643;22;46074;-82
2023/09/03 04:03:42;;;;;;;;;3.00;3.00;;;;;20.40;79.37;101584.91;6176003;23;45261;-82
2023/09/03 04:06:08;;;;;;;;;5.00;5.00;;;;;20.49;79.98;101612.06;6177355;22;45517;-81
2023/09/03 04:08:34;;;;;;;;;5.00;5.00;;;;;20.46;79.80;101616.88;6178146;23;45357;-82
2023/09/03 04:11:02;;;;;;;;;4.33;3.00;;;;;20.40;79.94;101611.91;6175506;23;47288;-80
2023/09/03 04:13:28;;;;;;;;;5.00;4.33;;;;;20.44;79.84;101624.22;6175179;22;45308;-80
2023/09/03 04:15:54;;;;;;;;;3.00;3.00;;;;;20.42;80.04;101626.19;6177712;22;45576;-80
2023/09/03 04:18:20;;;;;;;;;4.00;4.00;;;;;20.42;80.08;101618.94;6178172;23;45491;-80
2023/09/03 04:20:46;;;;;;;;;5.00;4.67;;;;;20.31;80.32;101602.69;6176608;23;46400;-82
2023/09/03 04:23:11;;;;;;;;;4.67;4.67;;;;;20.40;80.61;101628.97;6178768;23;45285;-82
2023/09/03 04:25:37;;;;;;;;;3.25;3.25;;;;;20.32;80.41;101616.13;6178834;22;45596;-81
2023/09/03 04:28:02;;;;;;;;;4.00;4.00;;;;;20.23;80.28;101611.44;6178159;22;45281;-80
2023/09/03 04:30:28;;;;;;;;;3.33;3.33;;;;;20.19;80.52;101604.56;6177501;23;45804;-82
2023/09/03 04:32:53;;;;;;;;;4.00;4.00;;;;;20.23;80.48;101624.09;6177259;23;63348;-80
2023/09/03 04:35:18;;;;;;;;;5.67;5.67;;;;;20.32;80.51;101626.91;6175542;23;45323;-82
2023/09/03 04:37:43;;;;;;;;;5.00;5.00;;;;;20.10;80.92;101599.91;6177513;23;45763;-80
2023/09/03 04:40:09;;;;;;;;;5.00;5.00;;;;;20.30;80.88;101633.41;6177286;23;45328;-80
2023/09/03 04:42:35;;;;;;;;;4.00;4.00;;;;;20.29;80.76;101634.38;6177340;23;45368;-80
2023/09/03 04:45:00;;;;;;;;;4.00;4.00;;;;;20.16;80.48;101617.44;6177771;22;45395;-81
2023/09/03 04:47:26;;;;;;;;;5.00;3.00;;;;;20.25;80.41;101620.28;6178943;23;45584;-80
2023/09/03 04:49:51;;;;;;;;;3.67;3.67;;;;;20.34;80.43;101640.31;6175588;23;46833;-80
2023/09/03 04:52:16;;;;;;;;;4.33;4.33;;;;;20.26;80.42;101632.81;6177435;23;45355;-80
2023/09/03 04:54:42;;;;;;;;;4.00;4.00;;;;;20.23;80.65;101626.78;6176245;23;45628;-81
2023/09/03 04:57:07;;;;;;;;;4.33;4.33;;;;;20.18;80.81;101623.59;6178824;22;45831;-81
2023/09/03 04:59:33;;;;;;;;;4.00;4.00;;;;;20.17;80.87;101625.41;6178639;22;45749;-81
2023/09/03 05:01:58;;;;;;;;;4.33;3.00;;;;;20.22;80.81;101641.28;6179909;23;45397;-79
2023/09/03 05:04:23;;;;;;;;;7.67;6.00;;;;;20.15;80.98;101635.50;6175339;23;45404;-82
2023/09/03 05:06:49;;;;;;;;;6.67;5.00;;;;;19.82;81.11;101578.78;6178088;23;45231;-80
2023/09/03 05:09:14;;;;;;;;;5.00;5.00;;;;;20.06;81.29;101627.28;6178298;22;45629;-81
2023/09/03 05:11:42;;;;;;;;;4.33;4.33;;;;;20.04;81.33;101625.53;6178881;23;45274;-81
2023/09/03 05:14:07;;;;;;;;;5.33;5.33;;;;;20.21;81.01;101653.06;6178277;23;45340;-82
2023/09/03 05:16:32;;;;;;;;;6.00;5.33;;;;;20.13;81.02;101645.56;6180204;22;45268;-81
2023/09/03 05:19:04;;;;;;;;;5.00;5.00;;;;;20.18;81.01;101656.00;6177512;23;58312;-82
2023/09/03 05:21:29;;;;;;;;;6.67;5.00;;;;;20.19;81.37;101652.34;6177949;23;45210;-80
2023/09/03 05:23:55;;;;;;;;;5.67;5.67;;;;;20.10;81.23;101648.53;6177000;22;45602;-80
2023/09/03 05:26:20;;;;;;;;;5.67;5.67;;;;;20.14;81.16;101654.53;6179941;23;45577;-81
2023/09/03 05:28:45;;;;;;;;;3.00;3.00;;;;;20.17;81.71;101654.28;6176387;23;46927;-80
2023/09/03 05:31:11;;;;;;;;;5.67;5.67;;;;;19.98;81.45;101623.34;6177701;23;52403;-82
2023/09/03 05:33:36;;;;;;;;;5.67;5.67;;;;;20.15;81.63;101661.66;6177755;23;45249;-80
2023/09/03 05:36:02;;;;;;;;;6.00;6.00;;;;;20.18;81.12;101667.69;6177326;23;45352;-80
2023/09/03 05:38:27;;;;;;;;;4.33;4.33;;;;;20.01;81.47;101639.28;6177642;23;45275;-82
2023/09/03 05:40:52;;;;;;;;;7.00;7.00;;;;;20.13;81.20;101669.88;6176668;23;51893;-79
2023/09/03 05:43:17;;;;;;;;;5.00;5.00;;;;;20.10;81.00;101659.31;6177855;23;45387;-79
2023/09/03 05:45:44;;;;;;;;;5.00;4.67;;;;;20.24;81.02;101687.94;6177321;22;45546;-81
2023/09/03 05:48:10;;;;;;;;;5.00;5.00;;;;;20.18;81.09;101672.19;6176371;22;46079;-80
2023/09/03 05:50:35;;;;;;;;;7.33;5.67;;;;;20.33;80.41;101696.19;6177089;22;46022;-79
2023/09/03 05:53:01;;;;;;;;;8.00;6.67;;;;;20.39;80.55;101708.31;6177530;23;45352;-79
2023/09/03 05:55:26;;;;;;;;;5.00;5.00;;;;;20.35;80.17;101682.53;6177658;23;45596;-79
2023/09/03 05:57:53;;;;;;;;;8.00;7.00;;;;;20.43;80.43;101693.59;6176608;23;45839;-80
2023/09/03 06:00:18;;;;;;;;;6.00;6.00;;;;;20.45;80.13;101693.50;6177339;22;45326;-81
2023/09/03 06:02:44;;;;;;;;;4.00;4.00;;;;;20.44;80.10;101705.28;6176338;22;45838;-78
2023/09/03 06:05:10;;;;;;;;;5.00;5.00;;;;;20.46;79.55;101687.13;6177933;22;45534;-80
2023/09/03 06:07:35;;;;;;;;;4.00;4.00;;;;;20.48;80.02;101695.97;6178354;23;45278;-81
2023/09/03 06:10:00;;;;;;;;;4.67;4.67;;;;;20.45;79.57;101685.41;6177704;23;63533;-82
2023/09/03 06:12:26;;;;;;;;;5.00;5.00;;;;;20.58;79.20;101697.81;6178509;22;45368;-82
2023/09/03 06:14:51;;;;;;;;;6.00;6.00;;;;;20.73;78.72;101700.25;6176088;23;45743;-81
2023/09/03 06:17:16;;;;;;;;;5.67;5.67;;;;;20.81;78.36;101703.16;6175814;23;47269;-79
2023/09/03 06:19:42;;;;;;;;;4.00;4.00;;;;;20.77;77.85;101686.34;6177691;23;61658;-81
2023/09/03 06:22:08;;;;;;;;;5.67;4.67;;;;;20.99;77.21;101722.47;6178989;22;45541;-81
2023/09/03 06:24:33;;;;;;;;;2.67;2.67;;;;;20.99;76.89;101711.63;6176813;23;45789;-81
2023/09/03 06:26:58;;;;;;;;;5.67;5.67;;;;;21.12;76.26;101713.19;6178378;23;46080;-82
2023/09/03 06:29:26;;;;;;;;;5.00;5.00;;;;;21.27;75.98;101731.88;6178646;23;45402;-80
2023/09/03 06:31:51;;;;;;;;;7.00;5.00;;;;;21.34;75.13;101722.25;6178331;22;45316;-80
2023/09/03 06:34:16;;;;;;;;;7.67;5.67;;;;;21.31;74.70;101709.00;6177892;23;45298;-82
2023/09/03 06:36:41;;;;;;;;;6.00;6.00;;;;;21.39;74.82;101733.56;6178955;23;49072;-83
2023/09/03 06:39:07;;;;;;;;;5.33;5.33;;;;;21.42;74.72;101742.28;6183473;23;64577;-86
2023/09/03 06:41:32;;;;;;;;;3.50;3.50;;;;;21.44;74.77;101734.03;6182734;23;45284;-84
2023/09/03 06:43:57;;;;;;;;;4.67;4.33;;;;;21.49;74.41;101734.53;6183243;23;45507;-81
2023/09/03 06:46:23;;;;;;;;;4.50;4.50;;;;;21.41;74.22;101718.06;6182529;23;45538;-81
2023/09/03 06:48:48;;;;;;;;;5.33;5.33;;;;;21.48;74.20;101732.78;6182263;23;45487;-82
2023/09/03 06:51:14;;;;;;;;;5.00;5.00;;;;;21.15;74.04;101672.38;6181177;23;45366;-83
2023/09/03 06:53:39;;;;;;;;;2.75;2.75;;;;;21.30;73.71;101696.44;6179600;23;45306;-83
2023/09/03 06:56:05;;;;;;;;;5.00;5.00;;;;;21.60;73.53;101720.91;6177621;23;47430;-79
2023/09/03 06:58:30;;;;;;;;;5.75;5.75;;;;;21.52;72.71;101682.84;6179179;22;45378;-82
2023/09/03 07:00:56;;;;;;;;;5.67;5.67;;;;;21.83;72.53;101709.97;6182153;22;45285;-82
2023/09/03 07:03:21;;;;;;;;;5.50;4.00;;;;;22.17;71.96;101752.19;6183173;22;45252;-82
2023/09/03 07:05:46;;;;;;;;;4.67;4.33;;;;;22.01;71.49;101721.97;6184578;22;45169;-82
2023/09/03 07:08:13;;;;;;;;;7.00;7.00;;;;;21.99;71.32;101713.09;6183124;23;45225;-84
2023/09/03 07:10:38;;;;;;;;;6.50;6.50;;;;;22.00;71.34;101709.38;6183411;22;45423;-81
2023/09/03 07:13:04;;;;;;;;;6.00;5.00;;;;;22.31;70.44;101732.88;6183207;23;45591;-80
2023/09/03 07:15:29;;;;;;;;;8.00;5.75;;;;;22.40;69.97;101747.47;6182466;23;45382;-80
2023/09/03 07:17:57;;;;;;;;;6.25;4.25;;;;;22.18;70.25;101718.66;6183233;23;46536;-80
2023/09/03 07:20:22;;;;;;;;;5.75;5.00;;;;;22.40;70.21;101747.47;6184060;23;45344;-81
2023/09/03 07:22:48;;;;;;;;;5.75;5.75;;;;;22.49;70.04;101762.03;6181625;23;45347;-79
2023/09/03 07:25:13;;;;;;;;;6.00;6.00;;;;;22.47;69.74;101745.06;6183163;23;45276;-80
2023/09/03 07:27:39;;;;;;;;;5.75;5.00;;;;;22.62;69.21;101760.81;6182619;23;52933;-80
2023/09/03 07:30:08;;;;;;;;;5.50;5.00;;;;;22.80;68.90;101774.63;6181546;23;45337;-82
2023/09/03 07:32:34;;;;;;;;;4.50;4.00;;;;;22.97;68.19;101775.00;6183123;22;45361;-81
2023/09/03 07:34:59;;;;;;;;;4.00;4.00;;;;;23.15;67.00;101746.19;6180311;23;47319;-79
2023/09/03 07:37:24;;;;;;;;;4.00;4.00;;;;;23.11;66.56;101744.75;6182921;22;45386;-80
2023/09/03 07:39:50;;;;;;;;;4.25;3.25;;;;;23.20;66.75;101744.78;6182929;22;45375;-80
2023/09/03 07:42:15;;;;;;;;;3.75;3.75;;;;;23.29;66.46;101740.34;6182886;23;53801;-81
2023/09/03 07:44:40;;;;;;;;;5.00;5.00;;;;;23.38;65.99;101758.53;6155383;23;56518;-81
2023/09/03 07:47:06;;;;;;;;;5.00;4.00;;;;;23.43;65.96;101749.94;6182989;23;45375;-80
2023/09/03 07:49:31;;;;;;;;;5.25;4.00;;;;;23.26;65.49;101708.06;6182606;23;51107;-79
2023/09/03 07:51:56;;;;;;;;;3.50;3.50;;;;;23.48;65.08;101742.25;6183024;23;45261;-80
2023/09/03 07:54:22;;;;;;;;;3.00;3.00;;;;;23.44;64.89;101716.41;6182707;23;45950;-80
2023/09/03 07:56:47;;;;;;;;;4.00;4.00;;;;;23.52;63.76;101728.25;6182370;23;45494;-82
2023/09/03 07:59:12;;;;;;;;;4.00;4.00;;;;;23.68;64.66;101734.97;6155910;23;52096;-81
2023/09/03 08:01:38;;;;;;;;;3.00;3.00;;;;;23.75;64.17;101736.13;6183700;23;45458;-81
2023/09/03 08:04:03;;;;;;;;;4.00;4.00;;;;;23.82;63.61;101720.97;6182198;23;72614;-79
2023/09/03 08:06:29;;;;;;;;;4.50;4.50;;;;;23.93;63.33;101737.09;6182815;23;45167;-81
2023/09/03 08:08:55;;;;;;;;;3.75;3.75;;;;;23.82;62.93;101712.81;6183013;23;45202;-81
2023/09/03 08:11:21;;;;;;;;;4.00;4.00;;;;;24.07;63.01;101733.94;6182981;23;45571;-81
2023/09/03 08:13:49;;;;;;;;;2.50;2.50;;;;;24.18;62.61;101743.78;6182512;23;45277;-85
2023/09/03 08:16:15;;;;;;;;;3.00;3.00;;;;;23.97;62.38;101697.81;6155351;23;45303;-80
2023/09/03 08:18:40;;;;;;;;;3.75;3.75;;;;;24.22;62.06;101726.22;6182362;23;54563;-81
2023/09/03 08:21:05;;;;;;;;;3.00;3.00;;;;;24.37;61.48;101740.22;6182515;23;51685;-80
2023/09/03 08:23:31;;;;;;;;;4.00;4.00;;;;;24.43;61.82;101739.59;6182011;23;45964;-81
2023/09/03 08:25:56;;;;;;;;;2.75;2.75;;;;;24.41;61.39;101730.75;6182358;23;47312;-81
2023/09/03 08:28:21;;;;;;;;;4.00;2.50;;;;;24.56;61.30;101731.97;6181230;23;57828;-81
2023/09/03 08:30:47;;;;;;;;;2.75;2.75;;;;;24.63;60.92;101730.38;6183272;23;45261;-81
2023/09/03 08:33:13;;;;;;;;;2.50;2.50;;;;;24.63;60.07;101721.38;6182938;23;46248;-82
2023/09/03 08:35:38;;;;;;;;;3.00;3.00;;;;;24.69;60.09;101723.47;6183559;23;45369;-80
2023/09/03 08:38:04;;;;;;;;;5.00;3.50;;;;;24.71;60.03;101711.44;6182981;23;45238;-83
2023/09/03 08:40:29;;;;;;;;;3.25;3.25;;;;;24.82;59.47;101729.44;6181498;23;45447;-80
2023/09/03 08:42:55;;;;;;;;;4.75;3.50;;;;;24.83;60.08;101719.41;6208923;22;46631;-84
2023/09/03 08:45:23;;;;;;;;;2.60;2.60;;;;;24.74;59.72;101706.69;6183937;22;45122;-81
2023/09/03 08:47:49;;;;;;;;;0.40;0.40;;;;;24.93;59.35;101734.66;6182415;23;45523;-81
2023/09/03 08:50:15;;;;;;;;;3.50;3.50;;;;;24.95;58.98;101726.34;6182836;22;45488;-81
2023/09/03 08:52:43;;;;;;;;;3.50;3.50;;;;;24.91;59.06;101700.47;6183148;23;46461;-78
2023/09/03 08:55:13;;;;;;;;;5.40;3.80;;;;;25.21;58.43;101745.56;6184428;22;45379;-82
2023/09/03 08:57:39;;;;;;;;;4.00;3.75;;;;;25.20;58.23;101741.13;6184730;22;45567;-81
2023/09/03 09:00:06;;;;;;;;;3.25;3.25;;;;;25.03;58.25;101696.56;6184794;23;45388;-83
2023/09/03 09:02:33;;;;;;;;;6.50;4.00;;;;;25.27;58.38;101740.38;6208029;22;47313;-82
2023/09/03 09:05:00;;;;;;;;;1.20;1.20;;;;;25.33;57.42;101733.44;6184498;22;45319;-82
2023/09/03 09:07:26;;;;;;;;;2.80;2.80;;;;;25.33;57.96;101738.88;6183962;22;45283;-82
2023/09/03 09:09:58;;;;;;;;;3.00;3.00;;;;;25.41;57.41;101741.72;6184062;22;45534;-82
2023/09/03 09:12:38;;;;;;;;;3.00;3.00;;;;;25.56;57.18;101740.16;6182351;22;45233;-80
2023/09/03 09:15:05;;;;;;;;;4.20;4.20;;;;;25.64;56.77;101747.53;6182681;23;45420;-82
2023/09/03 09:17:40;;;;;;;;;3.20;3.20;;;;;25.56;56.90;101728.41;6183089;22;45366;-82
2023/09/03 09:20:07;;;;;;;;;3.50;3.50;;;;;25.81;56.22;101760.34;6183722;22;45208;-82
2023/09/03 09:22:43;;;;;;;;;4.00;4.00;;;;;25.81;56.42;101738.53;6180788;23;46204;-81
2023/09/03 09:25:10;;;;;;;;;2.80;2.80;;;;;25.99;55.70;101760.31;6182460;22;45402;-81
2023/09/03 09:27:37;;;;;;;;;3.00;3.00;;;;;25.94;55.13;101737.28;6182493;22;45367;-81
2023/09/03 09:30:14;;;;;;;;;2.25;2.25;;;;;26.05;55.00;101748.78;6181703;22;45383;-82
2023/09/03 09:32:41;;;;;;;;;3.20;3.00;;;;;26.18;54.83;101756.56;6182505;22;45305;-82
2023/09/03 09:35:07;;;;;;;;;3.00;3.00;;;;;26.07;55.07;101718.63;6181590;22;45335;-81
2023/09/03 09:37:38;;;;;;;;;2.80;2.80;;;;;26.38;54.85;101763.53;6182142;22;45382;-81
2023/09/03 09:40:05;;;;;;;;;3.00;2.80;;;;;26.34;54.62;101745.75;6183301;22;45386;-82
2023/09/03 09:42:31;;;;;;;;;4.80;4.80;;;;;26.57;53.78;101772.53;6183410;23;45985;-82
2023/09/03 09:44:59;;;;;;;;;4.25;3.50;;;;;26.54;54.18;101751.00;6183272;22;45383;-83
2023/09/03 09:47:25;;;;;;;;;5.80;4.20;;;;;26.70;53.43;101773.78;6183349;22;45133;-82
2023/09/03 09:49:50;;;;;;;;;3.00;3.00;;;;;26.78;53.79;101772.09;6183682;22;45259;-81
2023/09/03 09:52:15;;;;;;;;;3.00;3.00;;;;;26.68;53.50;101756.69;6182737;22;45166;-82
2023/09/03 09:54:42;;;;;;;;;4.75;3.00;;;;;26.62;53.16;101735.53;6183661;22;45207;-82
2023/09/03 09:57:12;;;;;;;;;3.00;3.00;;;;;26.91;52.69;101765.16;6183901;22;45262;-81
2023/09/03 09:59:39;;;;;;;;;2.80;2.80;;;;;27.00;52.74;101758.72;6184484;22;45248;-81
2023/09/03 10:02:13;;;;;;;;;3.80;3.80;;;;;27.02;52.20;101756.72;6182302;23;46478;-81
2023/09/03 10:04:41;;;;;;;;;4.80;3.00;;;;;27.10;52.42;101749.59;6183480;23;45303;-81
2023/09/03 10:07:07;;;;;;;;;4.80;3.40;;;;;27.20;52.30;101750.28;6184194;23;45320;-81
2023/09/03 10:09:35;;;;;;;;;3.00;2.80;;;;;27.28;52.08;101761.22;6184136;22;45574;-82
2023/09/03 10:12:00;;;;;;;;;3.00;3.00;;;;;27.37;51.57;101749.31;6181665;23;48296;-81
2023/09/03 10:14:26;;;;;;;;;0.50;0.50;;;;;27.45;51.54;101743.00;6183655;23;45279;-80
2023/09/03 10:16:52;;;;;;;;;3.50;3.50;;;;;27.47;52.00;101754.59;6183958;23;45359;-82
2023/09/03 10:19:21;;;;;;;;;3.80;3.80;;;;;27.51;51.36;101753.25;6184789;22;45316;-81
2023/09/03 10:21:49;;;;;;;;;4.80;4.00;;;;;27.56;51.76;101738.06;6183276;23;46470;-82
2023/09/03 10:24:17;;;;;;;;;5.60;5.60;;;;;27.59;51.32;101739.59;6183351;22;45366;-82
2023/09/03 10:26:52;;;;;;;;;5.80;4.00;;;;;27.65;51.01;101747.16;6183453;22;45334;-82
2023/09/03 10:29:20;;;;;;;;;4.00;4.00;;;;;27.67;50.95;101753.31;6183729;22;45455;-80
2023/09/03 10:31:48;;;;;;;;;3.60;3.60;;;;;27.75;50.67;101752.47;6182905;23;46082;-81
2023/09/03 10:34:17;;;;;;;;;3.20;3.20;;;;;27.75;50.87;101731.47;6183442;22;45184;-81
2023/09/03 10:37:06;;;;;;;;;3.20;3.20;;;;;27.94;50.65;101752.13;6183569;22;45308;-82
2023/09/03 10:39:33;;;;;;;;;4.60;4.60;;;;;27.97;50.77;101738.09;6175684;23;45218;-82
2023/09/03 10:42:28;;;;;;;;;4.20;4.20;;;;;28.27;50.54;101761.19;6182460;22;45246;-80
2023/09/03 10:44:55;;;;;;;;;5.40;2.80;;;;;28.34;49.60;101753.13;6168948;23;45228;-82
2023/09/03 10:47:21;;;;;;;;;6.60;5.00;;;;;28.54;49.56;101765.41;6183100;22;45303;-82
2023/09/03 10:49:48;;;;;;;;;3.50;3.50;;;;;28.60;50.05;101753.75;6183247;22;45374;-81
2023/09/03 10:52:27;;;;;;;;;3.80;3.80;;;;;28.74;48.47;101758.47;6182855;22;45360;-82
2023/09/03 10:55:21;;;;;;;;;3.40;3.20;;;;;28.89;48.35;101757.78;6182972;23;45272;-82
2023/09/03 10:58:23;;;;;;;;;4.00;4.00;;;;;29.12;48.06;101760.59;6181351;23;45312;-81
2023/09/03 11:01:21;;;;;;;;;4.60;4.60;;;;;29.45;47.33;101753.88;6180331;23;46082;-81
2023/09/03 11:03:48;;;;;;;;;3.20;3.20;;;;;29.66;46.92;101736.78;6181864;23;46344;-81
2023/09/03 11:06:23;;;;;;;;;4.00;4.00;;;;;30.05;45.70;101749.47;6181386;23;45213;-82
2023/09/03 11:09:00;;;;;;;;;4.80;4.00;;;;;30.58;45.08;101753.06;6183610;22;45288;-81
2023/09/03 11:11:30;;;;;;;;;5.80;5.80;;;;;30.97;44.06;101753.66;6184372;23;45418;-82
2023/09/03 11:13:56;;;;;;;;;4.80;4.80;;;;;31.36;44.00;101749.72;6182851;22;45288;-81
2023/09/03 11:16:29;;;;;;;;;7.00;5.20;;;;;31.68;42.26;101724.47;6182304;23;45177;-82
2023/09/03 11:18:55;;;;;;;;;4.20;4.00;;;;;32.02;42.10;101731.13;6182900;22;45750;-82
2023/09/03 11:21:24;;;;;;;;;5.80;5.00;;;;;32.39;42.07;101732.69;6183084;22;45226;-82
2023/09/03 11:24:00;;;;;;;;;4.60;4.60;;;;;32.80;40.34;101729.09;6182892;22;46063;-82
2023/09/03 11:26:26;;;;;;;;;5.80;4.60;;;;;33.09;39.53;101725.25;6182568;22;45464;-82